Flight Track Log - Related Links

Times and Time Zones

All times are in EDT time to prevent confusion due to time zone crossing. See the SWA2147 flight status page for this flight to view local times or setup timezone preferences in your user account.

Time Position Orientation Groundspeed Altitude Reporting Facility
EDT Latitude Longitude Course Direction KTS MPH feet Rate Location/Type
Mon 10:37:15 PM 30.2758 -97.5909 156° South  Level FlightAware Approximate
Mon 10:38:38 PM 30.1586 -97.5306 63° Northeast 273 314 10,900  Level Houston Center
Mon 10:39:37 PM 30.2003 -97.4369 84° East 304 350 21,000 3,350 Climbing Houston Center
Mon 10:40:38 PM 30.2117 -97.3175 90° East 347 399 17,600 -100 Descending Houston Center
Mon 10:41:37 PM 30.2108 -97.1853 90° East 394 453 20,800 1,714 Climbing Houston Center
Mon 10:42:37 PM 30.2100 -97.0458 90° East 426 490 21,000 99 Climbing Houston Center
Mon 10:43:38 PM 30.2092 -96.9067 90° East 438 504 21,000  Level Houston Center
Mon 10:44:38 PM 30.2100 -96.7792 92° East 445 512 21,000 -250 Level Houston Center
Mon 10:45:38 PM 30.2067 -96.6447 90° East 437 503 20,500 -1,664 Descending Houston Center
Mon 10:46:37 PM 30.2075 -96.5100 90° East 421 484 17,700 -2,900 Descending Houston Center
Mon 10:47:38 PM 30.2078 -96.3781 92° East 415 478 14,700 -2,926 Descending Houston Center
Mon 10:48:38 PM 30.2036 -96.2603 128° Southeast 390 449 11,800 -1,850 Descending Houston Center
Mon 10:49:38 PM 30.1458 -96.1758 154° Southeast 309 356 11,000 -454 Descending Houston Center
Mon 10:50:37 PM 30.0578 -96.1264 156° South 310 357 10,900 -50 Descending Houston Center
Mon 10:51:37 PM 29.9758 -96.0844 156° South 316 364 10,900 -198 Level Houston Center
Mon 10:52:38 PM 29.8956 -96.0428 150° Southeast 322 371 10,500 -446 Descending Houston Center
Mon 10:53:38 PM 29.8119 -95.9867 134° Southeast 327 376 10,000 -252 Descending Houston Center
Mon 10:54:37 PM 29.7494 -95.9122 135° Southeast 332 382 10,000 -450 Level Houston Center
Mon 10:55:38 PM 29.6911 -95.8453 134° Southeast 320 368 9,100 -1,400 Descending Houston Center
Mon 10:56:37 PM 29.6367 -95.7811 93° East 294 338 7,200 -1,563 Descending Houston Center
Mon 10:57:37 PM 29.6331 -95.6972 61° Northeast 249 287 6,000 -1,500 Descending Houston Center
Mon 10:58:37 PM 29.6686 -95.6222 56° Northeast 227 261 4,200 -1,700 Descending Houston Center
Mon 10:59:37 PM 29.7103 -95.5497 59° Northeast 247 284 2,600 -1,050 Descending Houston Center
Mon 11:00:37 PM 29.7456 -95.4817 78° East 247 284 2,100 -248 Descending Houston Center
Mon 11:01:38 PM 29.7578 -95.4175 134° Southeast 214 246 2,100 -167 Level Houston Center
Mon 11:03:01 PM 29.7094 -95.3608 134° Southeast 151 174 1,700 -289 Descending Houston Center

Login

Don't have an account? Register now (free) for customized features, flight alerts, and more!